Time;durP1;ratioP1;P1;durP2;ratioP2;P2;SDS_P1;SDS_P2;PMS_P1;PMS_P2;Temp;Humidity;BMP_temperature;BMP_pressure;BME280_temperature;BME280_humidity;BME280_pressure;Samples;Min_cycle;Max_cycle;Signal;HPM_P1;HPM_P2
2023/08/09 00:02:21;;;;;;;2.20;1.50;;;18.00;76.00;;;;;;937480;149;27460;-76
2023/08/09 00:04:47;;;;;;;2.12;1.70;;;17.90;76.20;;;;;;937712;149;27452;-73
2023/08/09 00:07:14;;;;;;;1.67;1.57;;;17.90;76.40;;;;;;944856;149;27359;-74
2023/08/09 00:09:40;;;;;;;1.85;1.75;;;17.90;76.80;;;;;;944584;149;27342;-75
2023/08/09 00:12:07;;;;;;;1.80;1.65;;;17.90;77.20;;;;;;944759;151;27756;-76
2023/08/09 00:14:34;;;;;;;3.00;1.85;;;17.90;77.50;;;;;;952956;146;27331;-73
2023/08/09 00:17:00;;;;;;;2.05;1.70;;;17.90;77.80;;;;;;936913;151;27280;-73
2023/08/09 00:19:27;;;;;;;3.05;1.82;;;17.90;78.10;;;;;;939092;151;27395;-74
2023/08/09 00:21:53;;;;;;;1.50;1.40;;;17.90;78.40;;;;;;935633;149;27478;-74
2023/08/09 00:24:20;;;;;;;1.80;1.70;;;17.90;78.70;;;;;;936140;149;27382;-75
2023/08/09 00:26:47;;;;;;;2.75;1.77;;;17.80;79.20;;;;;;935951;148;27401;-74
2023/08/09 00:29:13;;;;;;;1.90;1.65;;;17.80;79.60;;;;;;951186;147;27418;-74
2023/08/09 00:31:40;;;;;;;2.52;1.65;;;17.80;80.10;;;;;;951209;147;27368;-74
2023/08/09 00:34:06;;;;;;;1.98;1.87;;;17.80;80.60;;;;;;949807;147;27364;-76
2023/08/09 00:36:34;;;;;;;2.83;1.70;;;17.80;81.00;;;;;;950157;147;27335;-73
2023/08/09 00:39:00;;;;;;;1.98;1.77;;;17.80;81.50;;;;;;950501;147;27327;-74
2023/08/09 00:41:26;;;;;;;1.77;1.67;;;17.80;82.00;;;;;;950004;147;27253;-75
2023/08/09 00:43:53;;;;;;;2.02;1.50;;;17.80;82.60;;;;;;951391;147;27370;-75
2023/08/09 00:46:21;;;;;;;2.58;1.70;;;17.70;83.00;;;;;;947460;147;27430;-76
2023/08/09 00:48:46;;;;;;;1.92;1.70;;;17.70;83.60;;;;;;949310;147;27362;-74
2023/08/09 00:51:12;;;;;;;3.70;1.90;;;17.80;85.10;;;;;;951209;147;27341;-74
2023/08/09 00:53:39;;;;;;;2.20;1.98;;;17.70;84.90;;;;;;950816;147;27416;-74
2023/08/09 00:56:06;;;;;;;1.72;1.62;;;17.70;85.50;;;;;;951078;147;27427;-75
2023/08/09 00:58:32;;;;;;;2.77;1.80;;;17.70;86.10;;;;;;949011;147;27369;-76
2023/08/09 01:00:59;;;;;;;2.52;1.90;;;17.70;86.90;;;;;;950650;147;28981;-74
2023/08/09 01:03:25;;;;;;;2.30;1.70;;;17.70;87.50;;;;;;949319;147;27330;-75
2023/08/09 01:05:52;;;;;;;2.65;2.00;;;17.70;88.30;;;;;;947899;147;27867;-74
2023/08/09 01:08:24;;;;;;;3.17;2.10;;;17.70;89.10;;;;;;948517;147;27388;-77
2023/08/09 01:10:51;;;;;;;3.72;2.92;;;17.70;89.70;;;;;;948496;147;27448;-74
2023/08/09 01:13:19;;;;;;;2.65;2.27;;;17.70;90.20;;;;;;935982;147;27320;-74
2023/08/09 01:15:44;;;;;;;2.67;2.47;;;17.70;90.50;;;;;;949778;147;27315;-74
2023/08/09 01:18:11;;;;;;;2.20;1.98;;;17.70;90.90;;;;;;949809;147;27377;-75
2023/08/09 01:20:37;;;;;;;2.02;1.80;;;17.70;91.20;;;;;;949889;147;27820;-74
2023/08/09 01:23:04;;;;;;;3.08;2.02;;;17.70;91.60;;;;;;947305;147;27365;-74
2023/08/09 01:25:30;;;;;;;3.10;2.02;;;17.60;91.90;;;;;;947658;147;27304;-74
2023/08/09 01:27:57;;;;;;;3.12;2.10;;;17.70;92.30;;;;;;942573;147;27416;-75
2023/08/09 01:30:24;;;;;;;2.85;2.10;;;17.70;92.60;;;;;;938682;151;27443;-76
2023/08/09 01:32:50;;;;;;;2.15;2.02;;;17.70;92.90;;;;;;933079;152;27361;-74
2023/08/09 01:35:17;;;;;;;2.83;1.98;;;17.70;93.30;;;;;;934997;151;27410;-74
2023/08/09 01:37:53;;;;;;;2.52;2.30;;;17.60;93.60;;;;;;934840;152;27517;-76
2023/08/09 01:40:19;;;;;;;2.67;2.20;;;17.60;94.00;;;;;;935580;152;27346;-74
2023/08/09 01:42:46;;;;;;;2.52;2.12;;;17.70;94.30;;;;;;936239;151;27453;-76
2023/08/09 01:45:12;;;;;;;4.17;2.22;;;17.60;94.60;;;;;;936469;149;27794;-74
2023/08/09 01:47:39;;;;;;;3.47;2.15;;;17.60;94.90;;;;;;949334;148;27305;-74
2023/08/09 01:50:06;;;;;;;2.87;1.80;;;17.60;95.10;;;;;;948148;148;27248;-74
2023/08/09 01:52:32;;;;;;;3.17;2.15;;;17.60;95.40;;;;;;949082;148;27492;-77
2023/08/09 01:54:59;;;;;;;3.75;2.08;;;17.60;95.70;;;;;;948432;148;27349;-74
2023/08/09 01:57:25;;;;;;;2.27;2.00;;;17.60;96.00;;;;;;948066;148;27423;-74
2023/08/09 01:59:52;;;;;;;2.20;2.08;;;17.60;96.30;;;;;;951135;148;27393;-75
2023/08/09 02:02:18;;;;;;;2.02;1.92;;;17.70;96.70;;;;;;950694;147;27317;-74
2023/08/09 02:04:45;;;;;;;2.70;2.50;;;17.70;96.90;;;;;;945066;149;27438;-73
2023/08/09 02:07:12;;;;;;;2.50;2.15;;;17.70;97.10;;;;;;937150;150;27365;-75
2023/08/09 02:09:38;;;;;;;2.50;2.20;;;17.70;97.20;;;;;;935674;150;27349;-75
2023/08/09 02:12:05;;;;;;;2.25;2.00;;;17.70;97.40;;;;;;937077;152;27485;-76
2023/08/09 02:14:31;;;;;;;2.55;2.05;;;17.70;97.50;;;;;;936598;150;27519;-75
2023/08/09 02:16:59;;;;;;;2.12;2.02;;;17.70;97.60;;;;;;953391;146;27438;-74
2023/08/09 02:19:25;;;;;;;2.30;2.10;;;17.70;97.80;;;;;;952559;146;27438;-74
2023/08/09 02:21:51;;;;;;;2.20;2.10;;;17.70;97.90;;;;;;952613;149;27341;-74
2023/08/09 02:24:18;;;;;;;2.42;2.20;;;17.70;98.00;;;;;;944609;149;27349;-75
2023/08/09 02:26:44;;;;;;;2.20;2.10;;;17.70;98.20;;;;;;939753;150;27643;-75
2023/08/09 02:29:11;;;;;;;3.02;2.35;;;17.80;98.30;;;;;;950537;147;27401;-74
2023/08/09 02:31:38;;;;;;;2.17;1.98;;;17.80;98.40;;;;;;951116;147;27477;-75
2023/08/09 02:34:04;;;;;;;3.10;2.15;;;17.80;98.50;;;;;;950811;147;27840;-74
2023/08/09 02:36:31;;;;;;;2.40;2.00;;;17.80;98.60;;;;;;951374;147;27387;-74
2023/08/09 02:38:58;;;;;;;2.83;2.62;;;17.80;98.70;;;;;;950475;147;27377;-76
2023/08/09 02:41:24;;;;;;;3.45;1.92;;;17.80;98.80;;;;;;951443;147;27976;-75
2023/08/09 02:43:50;;;;;;;2.60;2.12;;;17.70;98.80;;;;;;950359;147;27346;-75
2023/08/09 02:46:17;;;;;;;2.87;2.05;;;17.80;99.00;;;;;;949590;147;27458;-73
2023/08/09 02:48:44;;;;;;;2.80;2.17;;;17.70;99.10;;;;;;949561;147;27339;-74
2023/08/09 02:51:10;;;;;;;3.02;2.72;;;17.70;99.20;;;;;;949780;147;27328;-77
2023/08/09 02:53:37;;;;;;;2.60;2.30;;;17.70;99.30;;;;;;949176;147;27377;-73
2023/08/09 02:56:03;;;;;;;3.15;2.42;;;17.70;99.40;;;;;;938812;147;27442;-76
2023/08/09 02:58:30;;;;;;;2.60;2.30;;;17.70;99.50;;;;;;951298;147;27360;-74
2023/08/09 03:00:57;;;;;;;2.27;2.15;;;17.80;99.60;;;;;;949398;147;27318;-76
2023/08/09 03:03:23;;;;;;;2.98;2.27;;;17.70;99.70;;;;;;949261;147;27344;-74
2023/08/09 03:05:50;;;;;;;2.33;2.22;;;17.70;99.70;;;;;;950641;147;27289;-76
2023/08/09 03:08:16;;;;;;;3.83;2.17;;;17.70;99.90;;;;;;950611;147;27489;-75
2023/08/09 03:10:43;;;;;;;4.22;2.50;;;17.70;99.90;;;;;;950755;147;27377;-75
2023/08/09 03:13:10;;;;;;;2.08;1.98;;;17.70;99.90;;;;;;950641;147;27288;-76
2023/08/09 03:15:36;;;;;;;2.87;2.37;;;17.70;99.90;;;;;;950674;147;27653;-75
2023/08/09 03:18:03;;;;;;;3.45;2.40;;;17.70;99.90;;;;;;951614;147;27431;-76
2023/08/09 03:20:29;;;;;;;2.45;2.27;;;17.70;99.90;;;;;;949196;147;27369;-74
2023/08/09 03:22:59;;;;;;;3.55;2.40;;;17.70;99.90;;;;;;949505;147;27455;-75
2023/08/09 03:25:23;;;;;;;2.27;2.08;;;17.80;99.90;;;;;;949165;147;27357;-75
2023/08/09 03:27:49;;;;;;;2.77;2.42;;;17.70;99.90;;;;;;950933;147;27334;-75
2023/08/09 03:30:16;;;;;;;3.20;2.33;;;17.70;99.90;;;;;;950226;147;27464;-76
2023/08/09 03:32:43;;;;;;;3.15;2.10;;;17.70;99.90;;;;;;950679;147;27360;-75
2023/08/09 03:35:10;;;;;;;2.65;2.42;;;17.70;99.90;;;;;;950328;147;27441;-76
2023/08/09 03:37:36;;;;;;;2.40;2.20;;;17.70;99.90;;;;;;950197;147;27357;-74
2023/08/09 03:40:03;;;;;;;2.95;2.10;;;17.70;99.90;;;;;;950577;147;27427;-75
2023/08/09 03:42:29;;;;;;;2.40;2.10;;;17.70;99.90;;;;;;949859;147;27356;-76
2023/08/09 03:44:55;;;;;;;2.25;2.08;;;17.70;99.90;;;;;;950358;147;27485;-75
2023/08/09 03:47:22;;;;;;;3.40;2.10;;;17.70;99.90;;;;;;948869;147;27376;-76
2023/08/09 03:49:48;;;;;;;2.27;2.08;;;17.70;99.90;;;;;;951538;147;27373;-75
2023/08/09 03:52:15;;;;;;;1.98;1.85;;;17.70;99.90;;;;;;950925;147;27440;-76
2023/08/09 03:54:42;;;;;;;2.62;2.12;;;17.70;99.90;;;;;;950709;147;27347;-75
2023/08/09 03:57:08;;;;;;;2.27;2.10;;;17.70;99.90;;;;;;950131;147;27274;-76
2023/08/09 03:59:35;;;;;;;3.52;2.72;;;17.70;99.90;;;;;;951085;147;27778;-74
2023/08/09 04:02:02;;;;;;;2.40;2.20;;;17.70;99.90;;;;;;951879;147;27327;-77
2023/08/09 04:04:28;;;;;;;1.90;1.80;;;17.70;99.90;;;;;;951623;146;27353;-74
2023/08/09 04:06:55;;;;;;;2.10;1.90;;;17.70;99.90;;;;;;951600;147;27442;-75
2023/08/09 04:09:21;;;;;;;2.17;1.90;;;17.70;99.90;;;;;;950095;147;27497;-77
2023/08/09 04:11:48;;;;;;;2.05;1.82;;;17.70;99.90;;;;;;952223;147;27377;-78
2023/08/09 04:14:14;;;;;;;3.45;2.10;;;17.70;99.90;;;;;;949996;147;27360;-76
2023/08/09 04:16:41;;;;;;;3.55;1.95;;;17.80;99.90;;;;;;950847;147;27469;-77
2023/08/09 04:19:07;;;;;;;2.98;2.00;;;17.80;99.90;;;;;;950503;147;27427;-77
2023/08/09 04:21:34;;;;;;;2.35;2.10;;;17.80;99.90;;;;;;949182;147;27305;-77
2023/08/09 04:24:01;;;;;;;2.83;2.12;;;17.80;99.90;;;;;;950318;147;27336;-78
2023/08/09 04:26:27;;;;;;;2.05;1.85;;;17.80;99.90;;;;;;949862;147;27514;-77
2023/08/09 04:28:54;;;;;;;3.27;1.92;;;17.90;99.90;;;;;;949582;147;27349;-78
2023/08/09 04:31:20;;;;;;;3.52;2.30;;;17.90;99.90;;;;;;945981;149;27408;-77
2023/08/09 04:33:51;;;;;;;2.37;2.12;;;17.90;99.90;;;;;;939975;149;27343;-78
2023/08/09 04:36:14;;;;;;;3.95;2.20;;;17.90;99.90;;;;;;939758;151;27356;-76
2023/08/09 04:38:40;;;;;;;2.42;2.25;;;17.90;99.90;;;;;;939185;149;27391;-78
2023/08/09 04:41:07;;;;;;;4.83;2.17;;;17.90;99.90;;;;;;955948;149;27256;-78
2023/08/09 04:43:34;;;;;;;2.77;1.90;;;18.00;99.90;;;;;;955900;146;27302;-78
2023/08/09 04:46:00;;;;;;;3.08;2.08;;;18.00;99.90;;;;;;955928;148;27433;-77
2023/08/09 04:48:27;;;;;;;2.00;1.90;;;18.00;99.90;;;;;;955637;149;27327;-78
2023/08/09 04:50:53;;;;;;;2.20;2.10;;;18.00;99.90;;;;;;956410;146;27415;-77
2023/08/09 04:53:20;;;;;;;1.98;1.87;;;18.00;99.90;;;;;;941053;151;27411;-77
2023/08/09 04:55:46;;;;;;;2.55;2.08;;;18.00;99.90;;;;;;940094;149;27334;-77
2023/08/09 04:58:13;;;;;;;2.77;2.15;;;18.00;99.90;;;;;;940328;151;27391;-76
2023/08/09 05:00:40;;;;;;;2.65;1.77;;;18.00;99.90;;;;;;944839;149;27354;-77
2023/08/09 05:03:06;;;;;;;3.15;2.33;;;18.10;99.90;;;;;;945570;149;27324;-78
2023/08/09 05:05:33;;;;;;;3.02;2.00;;;18.10;99.90;;;;;;939376;150;27317;-78
2023/08/09 05:07:59;;;;;;;2.05;1.95;;;18.10;99.90;;;;;;941238;150;27401;-78
2023/08/09 05:10:26;;;;;;;2.35;2.15;;;18.10;99.90;;;;;;939773;149;27372;-78
2023/08/09 05:12:52;;;;;;;3.92;2.12;;;18.10;99.90;;;;;;955845;149;28915;-78
2023/08/09 05:15:19;;;;;;;2.60;2.20;;;18.20;99.90;;;;;;939341;152;27344;-78
2023/08/09 05:17:46;;;;;;;3.58;2.10;;;18.20;99.90;;;;;;945280;148;27427;-77
2023/08/09 05:20:12;;;;;;;2.05;1.92;;;18.20;99.90;;;;;;941867;150;27334;-79
2023/08/09 05:22:39;;;;;;;2.83;2.20;;;18.20;99.90;;;;;;949620;148;27318;-80
2023/08/09 05:25:05;;;;;;;3.40;2.08;;;18.20;99.90;;;;;;939308;152;27316;-78
2023/08/09 05:27:32;;;;;;;1.95;1.85;;;18.20;99.90;;;;;;940549;149;27313;-77
2023/08/09 05:29:59;;;;;;;3.62;1.95;;;18.30;99.90;;;;;;939689;149;27321;-77
2023/08/09 05:32:25;;;;;;;1.85;1.75;;;18.30;99.90;;;;;;945441;148;27385;-76
2023/08/09 05:34:52;;;;;;;2.15;2.05;;;18.30;99.90;;;;;;956268;146;27381;-78
2023/08/09 05:37:18;;;;;;;2.62;2.05;;;18.40;99.90;;;;;;958156;144;27714;-77
2023/08/09 05:39:45;;;;;;;1.70;1.60;;;18.40;99.90;;;;;;960388;144;27243;-77
2023/08/09 05:42:12;;;;;;;1.85;1.75;;;18.40;99.90;;;;;;959066;144;27323;-77
2023/08/09 05:44:38;;;;;;;2.35;2.15;;;18.40;99.90;;;;;;960333;144;27390;-76
2023/08/09 05:47:05;;;;;;;2.17;2.00;;;18.40;99.90;;;;;;959556;146;27359;-77
2023/08/09 05:49:31;;;;;;;3.15;2.10;;;18.50;99.90;;;;;;959421;148;27292;-77
2023/08/09 05:51:59;;;;;;;2.40;2.20;;;18.50;99.90;;;;;;953296;147;27432;-77
2023/08/09 05:54:25;;;;;;;1.92;1.82;;;18.50;99.90;;;;;;952696;147;27327;-77
2023/08/09 05:56:51;;;;;;;2.50;2.02;;;18.50;99.90;;;;;;952548;147;27473;-78
2023/08/09 05:59:18;;;;;;;1.90;1.80;;;18.60;99.90;;;;;;952022;147;27433;-78
2023/08/09 06:01:44;;;;;;;2.20;2.00;;;18.60;99.90;;;;;;949322;147;27325;-77
2023/08/09 06:04:11;;;;;;;2.98;1.80;;;18.70;99.90;;;;;;958559;144;27318;-77
2023/08/09 06:06:37;;;;;;;2.75;1.90;;;18.80;99.90;;;;;;959076;146;27292;-76
2023/08/09 06:09:09;;;;;;;1.82;1.72;;;18.80;99.90;;;;;;957339;146;27693;-78
2023/08/09 06:11:33;;;;;;;2.08;1.67;;;18.90;99.90;;;;;;958549;146;27339;-78
2023/08/09 06:14:00;;;;;;;3.77;1.45;;;19.00;99.90;;;;;;948911;147;27972;-77
2023/08/09 06:16:26;;;;;;;2.05;1.95;;;19.00;99.90;;;;;;959530;146;27418;-76
2023/08/09 06:18:53;;;;;;;3.30;2.10;;;19.10;99.90;;;;;;948502;147;27339;-78
2023/08/09 06:21:20;;;;;;;2.55;1.62;;;19.20;99.90;;;;;;960210;144;27383;-75
2023/08/09 06:23:46;;;;;;;1.80;1.70;;;19.30;99.90;;;;;;958252;146;27372;-77
2023/08/09 06:26:13;;;;;;;2.35;1.42;;;19.30;99.90;;;;;;958947;144;27282;-78
2023/08/09 06:28:39;;;;;;;1.70;1.60;;;19.40;99.90;;;;;;959036;146;27410;-77
2023/08/09 06:31:06;;;;;;;2.08;1.57;;;19.40;99.90;;;;;;945602;147;27352;-74
2023/08/09 06:33:37;;;;;;;1.50;1.40;;;19.50;99.90;;;;;;943393;147;27372;-74
2023/08/09 06:35:59;;;;;;;2.72;1.55;;;19.50;99.90;;;;;;948788;147;27479;-75
2023/08/09 06:38:26;;;;;;;2.20;1.65;;;19.50;99.90;;;;;;950297;147;27279;-76
2023/08/09 06:40:53;;;;;;;2.77;1.87;;;19.50;99.90;;;;;;949102;147;27417;-76
2023/08/09 06:43:20;;;;;;;1.70;1.60;;;19.50;99.90;;;;;;948027;147;27445;-75
2023/08/09 06:45:48;;;;;;;1.90;1.60;;;19.50;99.90;;;;;;948942;147;27430;-75
2023/08/09 06:48:12;;;;;;;3.17;1.62;;;19.50;99.90;;;;;;946786;147;27382;-75
2023/08/09 06:50:39;;;;;;;1.50;1.40;;;19.50;99.90;;;;;;948941;147;27406;-77
2023/08/09 06:53:05;;;;;;;1.75;1.60;;;19.50;99.90;;;;;;952155;147;27454;-76
2023/08/09 06:55:32;;;;;;;3.05;1.67;;;19.50;99.90;;;;;;950601;147;27289;-75
2023/08/09 06:57:58;;;;;;;2.85;1.62;;;19.50;99.90;;;;;;952047;147;27295;-76
2023/08/09 07:00:25;;;;;;;2.00;1.55;;;19.50;99.90;;;;;;950339;147;27329;-77
2023/08/09 07:02:52;;;;;;;1.55;1.47;;;19.50;99.90;;;;;;952334;147;27253;-76
2023/08/09 07:05:21;;;;;;;3.20;1.67;;;19.60;99.90;;;;;;953113;147;27741;-76
2023/08/09 07:07:47;;;;;;;2.02;1.70;;;19.60;99.90;;;;;;953549;147;27378;-75
2023/08/09 07:10:17;;;;;;;1.67;1.57;;;19.60;99.90;;;;;;954354;147;27676;-76
2023/08/09 07:12:41;;;;;;;3.05;1.60;;;19.60;99.90;;;;;;953486;149;27364;-75
2023/08/09 07:15:08;;;;;;;1.75;1.65;;;19.50;99.90;;;;;;952291;147;27470;-75
2023/08/09 07:17:34;;;;;;;1.90;1.45;;;19.50;99.90;;;;;;952074;147;27339;-75
2023/08/09 07:20:00;;;;;;;1.25;1.17;;;19.50;99.90;;;;;;952561;147;27300;-75
2023/08/09 07:22:27;;;;;;;0.95;0.78;;;19.50;99.90;;;;;;951383;147;27320;-76
2023/08/09 07:24:54;;;;;;;2.33;1.10;;;19.40;99.90;;;;;;952175;147;27343;-75
2023/08/09 07:27:20;;;;;;;0.50;0.50;;;19.40;99.90;;;;;;951954;147;27245;-75
2023/08/09 07:29:48;;;;;;;1.15;0.70;;;19.40;99.90;;;;;;954319;147;27321;-76
2023/08/09 07:32:13;;;;;;;0.80;0.80;;;19.30;99.90;;;;;;953089;147;27773;-76
2023/08/09 07:34:40;;;;;;;0.40;0.40;;;19.20;99.90;;;;;;952823;147;27354;-77
2023/08/09 07:37:07;;;;;;;0.95;0.90;;;19.10;99.90;;;;;;954570;147;27433;-76
2023/08/09 07:39:34;;;;;;;0.62;0.30;;;19.00;99.90;;;;;;954233;147;27397;-75
2023/08/09 07:42:00;;;;;;;0.60;0.60;;;18.90;99.90;;;;;;952678;147;27339;-75
2023/08/09 07:44:26;;;;;;;0.55;0.55;;;18.80;99.90;;;;;;952412;147;27398;-75
2023/08/09 07:46:53;;;;;;;1.37;1.17;;;18.80;99.90;;;;;;953305;147;27431;-75
2023/08/09 07:49:20;;;;;;;0.70;0.47;;;18.70;99.90;;;;;;953283;147;27325;-75
2023/08/09 07:51:46;;;;;;;0.57;0.57;;;18.70;99.90;;;;;;952885;147;27358;-76
2023/08/09 07:54:13;;;;;;;0.90;0.78;;;18.70;99.90;;;;;;952491;147;27301;-75
2023/08/09 07:56:39;;;;;;;0.72;0.53;;;18.70;99.90;;;;;;953018;147;27833;-75
2023/08/09 07:59:06;;;;;;;0.53;0.53;;;18.70;99.90;;;;;;952420;147;27340;-75
2023/08/09 08:01:32;;;;;;;0.25;0.25;;;18.70;99.90;;;;;;952766;147;27266;-74
2023/08/09 08:03:59;;;;;;;0.40;0.40;;;18.80;99.90;;;;;;954898;147;27329;-76
2023/08/09 08:06:26;;;;;;;0.35;0.35;;;18.80;99.90;;;;;;950590;147;27350;-77
2023/08/09 08:08:52;;;;;;;0.28;0.28;;;18.90;99.90;;;;;;953392;147;27457;-75
2023/08/09 08:11:19;;;;;;;1.32;0.40;;;19.00;99.90;;;;;;952679;147;27323;-75
2023/08/09 08:13:45;;;;;;;0.40;0.40;;;19.10;99.90;;;;;;952735;147;27344;-76
2023/08/09 08:16:12;;;;;;;0.90;0.50;;;19.20;99.90;;;;;;953574;147;27338;-74
2023/08/09 08:18:39;;;;;;;0.30;0.30;;;19.30;99.90;;;;;;952629;147;27356;-76
2023/08/09 08:21:05;;;;;;;0.40;0.40;;;19.40;99.90;;;;;;952856;147;27385;-76
2023/08/09 08:23:32;;;;;;;2.95;0.53;;;19.40;99.90;;;;;;953365;147;27316;-76
2023/08/09 08:25:58;;;;;;;0.50;0.50;;;19.40;99.90;;;;;;952947;147;27366;-74
2023/08/09 08:28:25;;;;;;;0.72;0.62;;;19.40;99.90;;;;;;952521;147;27281;-77
2023/08/09 08:30:52;;;;;;;1.10;0.40;;;19.40;99.90;;;;;;951696;147;27357;-74
2023/08/09 08:33:18;;;;;;;0.53;0.53;;;19.40;99.90;;;;;;952563;147;27424;-74
2023/08/09 08:35:48;;;;;;;0.65;0.65;;;19.40;99.90;;;;;;944778;147;27396;-76
2023/08/09 08:38:12;;;;;;;1.47;0.70;;;19.40;99.90;;;;;;940409;151;27277;-75
2023/08/09 08:40:38;;;;;;;1.42;0.60;;;19.40;99.90;;;;;;939192;151;27414;-75
2023/08/09 08:43:06;;;;;;;0.60;0.60;;;19.40;99.90;;;;;;937078;150;27351;-74
2023/08/09 08:45:31;;;;;;;0.50;0.50;;;19.40;99.90;;;;;;938051;151;27273;-76
2023/08/09 08:47:58;;;;;;;1.75;1.07;;;19.50;99.90;;;;;;937386;150;27355;-76
2023/08/09 08:50:25;;;;;;;1.20;0.60;;;19.50;99.90;;;;;;937158;150;27322;-78
2023/08/09 08:52:51;;;;;;;0.90;0.90;;;19.60;99.90;;;;;;939907;150;27371;-77
2023/08/09 08:55:17;;;;;;;0.80;0.80;;;19.70;99.90;;;;;;938516;151;27466;-78
2023/08/09 08:57:46;;;;;;;0.57;0.57;;;19.80;99.90;;;;;;943677;149;27370;-78
2023/08/09 09:00:15;;;;;;;0.60;0.60;;;19.90;99.90;;;;;;944522;151;27334;-77
2023/08/09 09:02:37;;;;;;;1.32;0.90;;;20.10;99.90;;;;;;941708;151;27331;-78
2023/08/09 09:05:06;;;;;;;0.95;0.60;;;20.20;99.90;;;;;;941043;150;27443;-78
2023/08/09 09:07:31;;;;;;;0.80;0.50;;;20.30;99.90;;;;;;939526;150;27918;-78
2023/08/09 09:10:00;;;;;;;1.62;0.60;;;20.50;99.90;;;;;;940476;151;27280;-79
2023/08/09 09:12:26;;;;;;;0.72;0.60;;;20.70;99.90;;;;;;940151;151;27345;-78
2023/08/09 09:14:53;;;;;;;0.62;0.62;;;20.80;99.90;;;;;;939264;151;27332;-79
2023/08/09 09:17:19;;;;;;;1.80;0.90;;;20.90;99.90;;;;;;956078;146;27235;-77
2023/08/09 09:19:46;;;;;;;0.57;0.57;;;20.90;99.90;;;;;;947990;150;27314;-77
2023/08/09 09:22:15;;;;;;;0.50;0.50;;;21.00;99.30;;;;;;949075;149;27319;-78
2023/08/09 09:24:42;;;;;;;0.75;0.75;;;21.00;99.30;;;;;;956213;146;27427;-78
2023/08/09 09:27:08;;;;;;;0.55;0.50;;;21.00;99.40;;;;;;944558;149;27450;-79
2023/08/09 09:29:35;;;;;;;0.60;0.60;;;21.00;99.50;;;;;;938840;150;27301;-78
2023/08/09 09:32:02;;;;;;;0.82;0.82;;;21.00;99.90;;;;;;939009;150;27333;-78
2023/08/09 09:34:31;;;;;;;1.02;0.65;;;21.00;99.90;;;;;;941498;151;27692;-76
2023/08/09 09:36:57;;;;;;;0.80;0.80;;;21.10;99.90;;;;;;940915;151;27379;-78
2023/08/09 09:39:24;;;;;;;1.27;0.90;;;21.30;99.90;;;;;;940888;151;27329;-78
2023/08/09 09:41:51;;;;;;;0.42;0.40;;;21.40;99.90;;;;;;938997;151;27335;-78
2023/08/09 09:44:20;;;;;;;1.50;0.80;;;21.70;99.90;;;;;;941964;150;27322;-76
2023/08/09 09:46:47;;;;;;;0.75;0.75;;;21.90;99.90;;;;;;939055;151;27384;-78
2023/08/09 09:49:14;;;;;;;0.57;0.57;;;22.20;99.90;;;;;;941690;151;27318;-79
2023/08/09 09:51:40;;;;;;;0.80;0.80;;;22.40;99.90;;;;;;940576;151;27455;-78
2023/08/09 09:54:06;;;;;;;0.37;0.33;;;22.60;99.90;;;;;;942351;148;27289;-77
2023/08/09 09:56:33;;;;;;;0.85;0.60;;;22.90;98.60;;;;;;940292;151;27360;-78
2023/08/09 09:59:00;;;;;;;1.07;0.80;;;23.10;98.70;;;;;;940965;150;27316;-75
2023/08/09 10:01:27;;;;;;;0.50;0.50;;;23.30;98.40;;;;;;944164;150;27317;-74
2023/08/09 10:03:53;;;;;;;0.70;0.70;;;23.50;97.50;;;;;;942115;150;27327;-75
2023/08/09 10:06:22;;;;;;;0.53;0.47;;;23.70;96.00;;;;;;957841;148;27337;-76
2023/08/09 10:08:48;;;;;;;0.70;0.70;;;24.00;96.90;;;;;;941661;150;27428;-74
2023/08/09 10:11:15;;;;;;;0.72;0.57;;;24.20;96.70;;;;;;948675;148;27339;-74
2023/08/09 10:13:42;;;;;;;0.95;0.70;;;24.50;96.00;;;;;;943352;148;27319;-74
2023/08/09 10:16:10;;;;;;;0.82;0.82;;;24.80;94.40;;;;;;942369;148;27328;-76
2023/08/09 10:18:39;;;;;;;0.60;0.60;;;25.10;93.10;;;;;;943255;148;27427;-76
2023/08/09 10:21:04;;;;;;;1.15;0.70;;;25.30;91.90;;;;;;947385;148;28369;-74
2023/08/09 10:23:31;;;;;;;0.60;0.60;;;25.50;91.40;;;;;;948747;149;27303;-75
2023/08/09 10:25:57;;;;;;;0.53;0.53;;;25.70;90.10;;;;;;948981;150;27361;-74
2023/08/09 10:28:42;;;;;;;0.70;0.70;;;25.90;90.40;;;;;;948288;150;27323;-77
2023/08/09 10:31:06;;;;;;;0.60;0.60;;;26.10;87.90;;;;;;949117;150;27448;-74
2023/08/09 10:33:32;;;;;;;1.25;0.60;;;26.30;87.00;;;;;;948783;150;27864;-75
2023/08/09 10:35:59;;;;;;;0.82;0.70;;;26.50;85.00;;;;;;949490;148;27316;-75
2023/08/09 10:38:31;;;;;;;0.62;0.62;;;26.70;83.20;;;;;;950358;148;27693;-74
2023/08/09 10:40:58;;;;;;;0.60;0.60;;;26.80;80.50;;;;;;957068;146;27435;-74
2023/08/09 10:43:24;;;;;;;4.03;0.80;;;26.90;78.90;;;;;;955384;149;27258;-74
2023/08/09 10:45:51;;;;;;;0.80;0.80;;;27.10;77.90;;;;;;956878;148;27661;-76
2023/08/09 10:48:24;;;;;;;0.40;0.40;;;27.20;77.30;;;;;;947766;150;27352;-75
2023/08/09 10:51:08;;;;;;;0.57;0.57;;;27.30;76.90;;;;;;947488;150;27443;-74
2023/08/09 10:53:57;;;;;;;0.98;0.70;;;27.40;75.10;;;;;;940381;151;27903;-74
2023/08/09 10:56:34;;;;;;;0.60;0.60;;;27.50;74.60;;;;;;939708;150;27541;-74
2023/08/09 10:59:12;;;;;;;0.60;0.60;;;27.60;74.50;;;;;;940630;150;27314;-77
2023/08/09 11:01:36;;;;;;;1.17;0.95;;;27.70;73.90;;;;;;940795;151;27385;-77
2023/08/09 11:04:06;;;;;;;0.75;0.60;;;27.80;72.60;;;;;;941197;149;27370;-75
2023/08/09 11:06:41;;;;;;;0.93;0.70;;;27.90;71.50;;;;;;939253;148;27270;-74
2023/08/09 11:09:08;;;;;;;0.80;0.80;;;28.00;70.60;;;;;;942779;149;27373;-76
2023/08/09 11:11:34;;;;;;;1.07;0.98;;;28.10;70.20;;;;;;940031;151;27450;-74
2023/08/09 11:14:01;;;;;;;0.80;0.60;;;28.20;68.90;;;;;;942046;151;27328;-76
2023/08/09 11:16:27;;;;;;;0.93;0.90;;;28.20;67.80;;;;;;941917;151;27306;-75
2023/08/09 11:19:03;;;;;;;0.98;0.88;;;28.20;67.40;;;;;;948387;148;27312;-74
2023/08/09 11:21:39;;;;;;;0.53;0.53;;;28.20;67.20;;;;;;940408;149;27322;-75
2023/08/09 11:24:08;;;;;;;1.07;0.98;;;28.30;66.80;;;;;;938351;152;27972;-77
2023/08/09 11:26:32;;;;;;;0.55;0.55;;;28.40;66.00;;;;;;937965;151;27765;-73
2023/08/09 11:28:59;;;;;;;1.45;1.35;;;28.50;66.00;;;;;;939243;151;27389;-75
2023/08/09 11:31:25;;;;;;;0.90;0.90;;;28.60;66.80;;;;;;944996;150;27684;-76
2023/08/09 11:33:59;;;;;;;1.42;1.32;;;28.80;66.90;;;;;;953285;146;27381;-74
2023/08/09 11:36:27;;;;;;;1.00;0.90;;;28.90;66.10;;;;;;938477;151;27390;-74
2023/08/09 11:38:54;;;;;;;1.10;0.88;;;29.00;65.30;;;;;;941691;149;27403;-75
2023/08/09 11:41:21;;;;;;;0.80;0.80;;;29.10;64.60;;;;;;940852;151;27303;-75
2023/08/09 11:43:47;;;;;;;1.20;0.98;;;29.20;63.90;;;;;;940734;151;27420;-75
2023/08/09 11:46:14;;;;;;;0.93;0.80;;;29.20;62.30;;;;;;940892;151;27436;-74
2023/08/09 11:48:43;;;;;;;0.72;0.70;;;29.20;61.40;;;;;;945442;151;27431;-74
2023/08/09 11:51:12;;;;;;;1.15;0.60;;;29.20;61.10;;;;;;940960;149;27303;-75
2023/08/09 11:53:39;;;;;;;1.32;0.68;;;29.10;60.80;;;;;;941298;149;27402;-76
2023/08/09 11:56:05;;;;;;;1.00;0.90;;;29.10;61.10;;;;;;941166;151;27370;-75
2023/08/09 11:58:35;;;;;;;0.80;0.80;;;29.10;61.00;;;;;;946878;149;27363;-73
2023/08/09 12:01:20;;;;;;;1.57;0.80;;;29.20;60.20;;;;;;956502;149;27317;-75
2023/08/09 12:03:46;;;;;;;0.88;0.70;;;29.10;60.00;;;;;;955759;149;27385;-76
2023/08/09 12:06:14;;;;;;;1.17;0.90;;;29.10;60.00;;;;;;956605;149;27461;-76
2023/08/09 12:08:39;;;;;;;0.82;0.80;;;29.00;59.90;;;;;;937234;149;27410;-74
2023/08/09 12:11:06;;;;;;;1.42;0.90;;;29.00;60.00;;;;;;937098;152;27339;-74
2023/08/09 12:13:32;;;;;;;2.40;1.07;;;28.90;60.00;;;;;;936287;149;27410;-75
2023/08/09 12:16:00;;;;;;;1.25;0.98;;;28.80;59.50;;;;;;936428;149;27286;-76
2023/08/09 12:18:26;;;;;;;1.80;0.88;;;28.80;59.60;;;;;;944940;151;27430;-76
2023/08/09 12:20:52;;;;;;;0.70;0.70;;;28.70;59.40;;;;;;937818;149;27365;-75
2023/08/09 12:23:19;;;;;;;0.80;0.80;;;28.60;59.10;;;;;;954795;149;27438;-74
2023/08/09 12:25:45;;;;;;;1.02;0.90;;;28.40;58.70;;;;;;940655;151;27295;-74
2023/08/09 12:28:12;;;;;;;1.07;0.75;;;28.30;58.60;;;;;;939619;150;27390;-76
2023/08/09 12:30:39;;;;;;;1.00;0.90;;;28.20;58.40;;;;;;940790;151;27385;-74
2023/08/09 12:33:05;;;;;;;1.22;1.12;;;28.00;58.50;;;;;;941229;151;28952;-74
2023/08/09 12:35:32;;;;;;;0.80;0.75;;;27.80;58.40;;;;;;940172;151;27352;-76
2023/08/09 12:37:58;;;;;;;1.00;1.00;;;27.70;58.30;;;;;;944947;149;27374;-75
2023/08/09 12:40:25;;;;;;;1.30;1.07;;;27.60;58.50;;;;;;954095;147;27353;-77
2023/08/09 12:42:52;;;;;;;0.95;0.88;;;27.40;58.70;;;;;;952817;147;27345;-74
2023/08/09 12:45:18;;;;;;;1.12;0.80;;;27.30;59.30;;;;;;953460;147;27423;-75
2023/08/09 12:47:45;;;;;;;0.70;0.70;;;27.30;59.10;;;;;;954247;147;27288;-74